Klamath Falls, Oregon
Current Conditions -  °F | °C
As of 12:53 PM on Tuesday 21 Oct 2014 (Local Time) from KLMT Reporting Station
Broken Clouds Broken Clouds  
Wind Chill: 50°   Ceiling: 3100
Heat Index: 50°   Visibility: 10mi
Dew Point: 37°   Wind: 5mph
Humidity: 61%   Direction: 180°S
Pressure: 30.11"   Gusts: NA
Location:  42.22°N, 121.78°W
Report Text: KLMT 211953Z 18004KT 10SM BKN031 10/03 A3011 RMK AO2 SLP189 T01000028
Loading
Personal Weather Stations






























Interactive Weather Map
Tropical Storm Tracking
New forecast layout! Learn more

10-Day Weather Forecast

Advertisements
Track Severe Weather on mobile